createdAt,value
2018-07-09T00:01:18.018Z,5.83
2018-07-09T00:03:47.345Z,6.20
2018-07-09T00:06:16.668Z,6.57
2018-07-09T00:08:45.933Z,6.60
2018-07-09T00:11:15.231Z,5.70
2018-07-09T00:13:44.550Z,6.20
2018-07-09T00:16:13.842Z,5.90
2018-07-09T00:18:43.120Z,5.77
2018-07-09T00:21:12.666Z,5.50
2018-07-09T00:23:43.669Z,5.77
2018-07-09T00:26:12.962Z,6.10
2018-07-09T00:28:42.368Z,5.53
2018-07-09T00:31:11.627Z,6.40
2018-07-09T00:33:40.900Z,5.90
2018-07-09T00:36:09.965Z,6.00
2018-07-09T00:38:39.282Z,5.70
2018-07-09T00:41:08.715Z,6.50
2018-07-09T00:43:38.298Z,5.87
2018-07-09T00:46:07.759Z,6.20
2018-07-09T00:48:37.058Z,5.87
2018-07-09T00:51:06.442Z,6.47
2018-07-09T00:53:35.974Z,6.03
2018-07-09T00:56:05.550Z,7.10
2018-07-09T00:58:34.913Z,7.23
2018-07-09T01:01:04.714Z,5.90
2018-07-09T01:03:34.321Z,7.30
2018-07-09T01:06:04.376Z,6.27
2018-07-09T01:08:33.942Z,7.33
2018-07-09T01:11:20.345Z,6.63
2018-07-09T01:13:49.956Z,6.80
2018-07-09T01:16:19.702Z,6.70
2018-07-09T01:18:49.356Z,5.80
2018-07-09T01:21:18.847Z,7.33
2018-07-09T01:23:48.466Z,8.20
2018-07-09T01:26:18.305Z,9.07
2018-07-09T01:28:47.909Z,8.03
2018-07-09T01:31:17.462Z,8.00
2018-07-09T01:33:46.995Z,8.17
2018-07-09T01:36:16.723Z,7.70
2018-07-09T01:38:46.590Z,7.23
2018-07-09T01:41:16.226Z,6.90
2018-07-09T01:43:46.368Z,8.53
2018-07-09T01:46:16.091Z,8.33
2018-07-09T01:48:45.865Z,7.40
2018-07-09T01:51:15.640Z,8.17
2018-07-09T01:53:45.227Z,8.10
2018-07-09T01:56:14.646Z,7.90
2018-07-09T01:58:44.432Z,8.23
2018-07-09T02:01:13.842Z,7.27
2018-07-09T02:03:43.428Z,7.63
2018-07-09T02:06:12.967Z,7.40
2018-07-09T02:08:42.686Z,8.70
2018-07-09T02:11:12.407Z,7.70
2018-07-09T02:13:41.755Z,7.90
2018-07-09T02:16:11.226Z,7.90
2018-07-09T02:18:40.667Z,8.03
2018-07-09T02:21:10.201Z,9.03
2018-07-09T02:23:39.850Z,7.87
2018-07-09T02:26:09.755Z,7.80
2018-07-09T02:28:38.924Z,7.27
2018-07-09T02:31:08.456Z,8.17
2018-07-09T02:33:38.801Z,8.20
2018-07-09T02:36:08.418Z,8.20
2018-07-09T02:38:38.056Z,8.37
2018-07-09T02:41:07.786Z,8.80
2018-07-09T02:43:37.216Z,7.90
2018-07-09T02:46:06.864Z,7.80
2018-07-09T02:48:36.363Z,7.57
2018-07-09T02:51:05.965Z,8.00
2018-07-09T02:53:35.514Z,8.37
2018-07-09T02:56:05.072Z,8.20
2018-07-09T02:58:34.784Z,8.43
2018-07-09T03:01:04.464Z,8.53
2018-07-09T03:03:34.472Z,8.07
2018-07-09T03:06:03.960Z,9.60
2018-07-09T03:08:33.671Z,8.23
2018-07-09T03:11:03.303Z,8.90
2018-07-09T03:13:33.119Z,10.00
2018-07-09T03:16:03.115Z,9.60
2018-07-09T03:18:32.730Z,8.97
2018-07-09T03:21:02.140Z,8.90
2018-07-09T03:23:31.846Z,9.67
2018-07-09T03:26:01.293Z,8.90
2018-07-09T03:28:30.985Z,9.37
2018-07-09T03:31:00.559Z,9.00
2018-07-09T03:33:30.086Z,9.37
2018-07-09T03:35:59.663Z,9.80
2018-07-09T03:38:29.401Z,9.90
2018-07-09T03:40:59.044Z,9.93
2018-07-09T03:43:28.718Z,10.10
2018-07-09T03:45:58.170Z,9.67
2018-07-09T03:48:27.809Z,8.97
2018-07-09T03:50:57.160Z,9.00
2018-07-09T03:53:26.284Z,9.10
2018-07-09T03:55:55.972Z,9.00
2018-07-09T03:58:25.447Z,9.63
2018-07-09T04:00:55.222Z,10.00
2018-07-09T04:03:24.809Z,10.27
2018-07-09T04:05:54.343Z,10.43
2018-07-09T04:08:24.202Z,9.10
2018-07-09T04:10:54.096Z,9.33
2018-07-09T04:13:23.910Z,10.37
2018-07-09T04:15:53.451Z,10.20
2018-07-09T04:18:25.048Z,10.10
2018-07-09T04:20:56.597Z,9.03
2018-07-09T04:23:26.544Z,8.60
2018-07-09T04:25:55.734Z,8.50
2018-07-09T04:28:25.226Z,8.03
2018-07-09T04:30:54.552Z,7.20
2018-07-09T04:33:23.895Z,7.53
2018-07-09T04:35:53.178Z,8.33
2018-07-09T04:38:22.473Z,7.60
2018-07-09T04:40:51.794Z,7.40
2018-07-09T04:43:21.256Z,6.80
2018-07-09T04:45:50.570Z,7.57
2018-07-09T04:48:19.869Z,7.80
2018-07-09T04:50:49.199Z,7.10
2018-07-09T04:53:18.574Z,7.83
2018-07-09T04:55:47.849Z,7.40
2018-07-09T04:58:17.258Z,8.40
2018-07-09T05:00:46.763Z,6.73
2018-07-09T05:03:16.293Z,7.03
2018-07-09T05:05:45.606Z,6.60
2018-07-09T05:08:15.320Z,6.57
2018-07-09T05:10:44.628Z,6.83
2018-07-09T05:13:13.973Z,7.20
2018-07-09T05:15:43.319Z,6.37
2018-07-09T05:18:12.624Z,6.10
2018-07-09T05:20:42.108Z,6.40
2018-07-09T05:23:11.469Z,8.07
2018-07-09T05:25:40.768Z,6.53
2018-07-09T05:28:10.125Z,7.17
2018-07-09T05:30:39.686Z,6.53
2018-07-09T05:33:10.078Z,7.00
2018-07-09T05:35:39.405Z,6.10
2018-07-09T05:38:08.742Z,6.47
2018-07-09T05:40:38.179Z,7.10
2018-07-09T05:43:07.256Z,6.80
2018-07-09T05:45:36.765Z,6.97
2018-07-09T05:48:07.678Z,7.13
2018-07-09T05:50:37.104Z,6.70
2018-07-09T05:53:06.636Z,7.57
2018-07-09T05:55:36.104Z,7.50
2018-07-09T05:58:05.415Z,7.70
2018-07-09T06:00:34.831Z,6.60
2018-07-09T06:03:04.370Z,7.70
2018-07-09T06:05:33.802Z,8.20
2018-07-09T06:08:03.085Z,8.20
2018-07-09T06:10:32.399Z,6.77
2018-07-09T06:13:01.851Z,7.20
2018-07-09T06:15:31.362Z,6.43
2018-07-09T06:18:00.786Z,7.43
2018-07-09T06:20:30.176Z,6.90
2018-07-09T06:22:59.502Z,6.60
2018-07-09T06:25:28.860Z,6.83
2018-07-09T06:27:59.345Z,6.40
2018-07-09T06:30:28.670Z,6.63
2018-07-09T06:32:58.020Z,5.90
2018-07-09T06:35:27.039Z,6.40
2018-07-09T06:37:56.420Z,6.03
2018-07-09T06:40:25.778Z,13.40
2018-07-09T06:42:55.113Z,6.77
2018-07-09T06:45:24.411Z,6.53
2018-07-09T06:47:53.727Z,6.23
2018-07-09T06:50:23.097Z,6.50
2018-07-09T06:52:52.663Z,5.33
2018-07-09T06:55:21.983Z,5.93
2018-07-09T06:57:51.330Z,7.50
2018-07-09T07:00:21.240Z,7.20
2018-07-09T07:02:50.566Z,5.43
2018-07-09T07:05:19.935Z,6.23
2018-07-09T07:07:49.375Z,6.30
2018-07-09T07:10:18.706Z,6.03
2018-07-09T07:12:47.998Z,6.20
2018-07-09T07:15:17.360Z,6.07
2018-07-09T07:17:46.640Z,6.77
2018-07-09T07:20:15.979Z,5.73
2018-07-09T07:22:45.963Z,6.07
2018-07-09T07:25:15.442Z,6.60
2018-07-09T07:27:44.773Z,6.00
2018-07-09T07:30:14.120Z,5.90
2018-07-09T07:32:43.399Z,6.00
2018-07-09T07:35:12.667Z,5.20
2018-07-09T07:37:42.005Z,6.13
2018-07-09T07:40:11.381Z,5.47
2018-07-09T07:42:40.783Z,5.50
2018-07-09T07:45:10.883Z,6.43
2018-07-09T07:47:40.183Z,6.37
2018-07-09T07:50:09.545Z,6.87
2018-07-09T07:52:38.831Z,6.50
2018-07-09T07:55:08.147Z,5.80
2018-07-09T07:57:37.459Z,5.90
2018-07-09T08:00:07.672Z,5.77
2018-07-09T08:02:37.077Z,6.30
2018-07-09T08:05:06.627Z,5.47
2018-07-09T08:07:36.785Z,6.03
2018-07-09T08:10:07.330Z,7.17
2018-07-09T08:15:06.273Z,6.20
2018-07-09T08:17:35.596Z,4.93
2018-07-09T08:20:05.508Z,5.87
2018-07-09T08:22:34.819Z,5.50
2018-07-09T08:25:04.241Z,6.30
2018-07-09T08:27:33.192Z,5.80
2018-07-09T08:30:02.783Z,5.80
2018-07-09T08:32:32.084Z,5.10
2018-07-09T08:35:06.790Z,6.23
2018-07-09T08:37:36.133Z,5.57
2018-07-09T08:40:05.646Z,5.50
2018-07-09T08:42:35.024Z,5.07
2018-07-09T08:45:04.624Z,5.83
2018-07-09T08:47:34.347Z,5.33
2018-07-09T08:50:04.393Z,5.47
2018-07-09T08:52:33.782Z,5.33
2018-07-09T08:55:03.051Z,5.37
2018-07-09T08:57:32.402Z,4.53
2018-07-09T09:00:01.722Z,4.10
2018-07-09T09:02:31.321Z,3.83
2018-07-09T09:05:00.696Z,4.07
2018-07-09T09:07:30.193Z,3.90
2018-07-09T09:09:59.507Z,3.53
2018-07-09T09:12:29.115Z,3.67
2018-07-09T09:14:58.494Z,3.97
2018-07-09T09:17:27.811Z,3.50
2018-07-09T09:19:57.376Z,3.80
2018-07-09T09:22:26.688Z,3.73
2018-07-09T09:24:56.012Z,3.50
2018-07-09T09:27:25.356Z,3.43
2018-07-09T09:29:54.710Z,3.67
2018-07-09T09:32:23.983Z,2.83
2018-07-09T09:34:53.665Z,3.00
2018-07-09T09:37:23.024Z,3.30
2018-07-09T09:39:52.758Z,3.70
2018-07-09T09:42:22.058Z,3.60
2018-07-09T09:44:51.358Z,3.50
2018-07-09T09:47:20.676Z,3.57
2018-07-09T09:49:49.974Z,2.70
2018-07-09T09:52:19.364Z,2.93
2018-07-09T09:54:48.639Z,2.63
2018-07-09T09:57:18.772Z,3.20
2018-07-09T09:59:48.116Z,2.47
2018-07-09T10:02:17.429Z,3.07
2018-07-09T10:04:47.139Z,2.47
2018-07-09T10:07:16.505Z,2.40
2018-07-09T10:09:45.844Z,2.60
2018-07-09T10:12:15.306Z,2.70
2018-07-09T10:14:44.661Z,2.73
2018-07-09T10:17:14.041Z,2.50
2018-07-09T10:19:43.787Z,3.40
2018-07-09T10:22:13.092Z,2.77
2018-07-09T10:24:42.374Z,2.70
2018-07-09T10:27:11.734Z,2.97
2018-07-09T10:29:41.017Z,2.77
2018-07-09T10:32:10.296Z,3.07
2018-07-09T10:34:39.619Z,2.33
2018-07-09T10:37:08.945Z,2.57
2018-07-09T10:39:38.365Z,2.57
2018-07-09T10:42:08.700Z,3.03
2018-07-09T10:44:38.127Z,3.10
2018-07-09T10:47:07.611Z,3.13
2018-07-09T10:49:37.060Z,3.47
2018-07-09T10:52:06.600Z,2.57
2018-07-09T10:54:36.123Z,3.00
2018-07-09T10:57:05.545Z,2.20
2018-07-09T10:59:34.907Z,2.73
2018-07-09T11:02:04.285Z,2.53
2018-07-09T11:04:34.020Z,3.00
2018-07-09T11:07:03.791Z,2.97
2018-07-09T11:09:33.276Z,2.67
2018-07-09T11:12:02.628Z,2.13
2018-07-09T11:14:31.955Z,2.60
2018-07-09T11:17:01.258Z,3.37
2018-07-09T11:19:30.584Z,2.27
2018-07-09T11:21:59.944Z,2.60
2018-07-09T11:24:29.281Z,3.37
2018-07-09T11:26:58.658Z,2.87
2018-07-09T11:29:27.948Z,2.93
2018-07-09T11:31:57.251Z,3.60
2018-07-09T11:34:26.656Z,2.93
2018-07-09T11:36:56.188Z,2.97
2018-07-09T11:39:26.693Z,2.90
2018-07-09T11:41:56.176Z,2.87
2018-07-09T11:44:25.580Z,3.03
2018-07-09T11:46:54.978Z,3.10
2018-07-09T11:49:24.414Z,2.83
2018-07-09T11:51:53.705Z,2.90
2018-07-09T11:54:23.077Z,3.53
2018-07-09T11:56:52.390Z,3.03
2018-07-09T11:59:21.717Z,2.70
2018-07-09T12:01:51.028Z,2.33
2018-07-09T12:04:20.342Z,2.30
2018-07-09T12:06:49.893Z,2.40
2018-07-09T12:09:19.367Z,2.80
2018-07-09T12:11:49.004Z,2.70
2018-07-09T12:14:18.326Z,2.77
2018-07-09T12:16:47.639Z,2.33
2018-07-09T12:19:17.036Z,2.13
2018-07-09T12:21:46.403Z,2.60
2018-07-09T12:24:15.682Z,3.23
2018-07-09T12:26:45.075Z,2.53
2018-07-09T12:29:14.511Z,2.37
2018-07-09T12:31:43.700Z,2.93
2018-07-09T12:34:13.084Z,2.03
2018-07-09T12:36:42.371Z,2.70
2018-07-09T12:39:11.684Z,2.60
2018-07-09T12:41:41.047Z,2.07
2018-07-09T12:44:10.328Z,3.13
2018-07-09T12:46:39.723Z,1.97
2018-07-09T12:49:09.129Z,2.07
2018-07-09T12:51:38.565Z,2.73
2018-07-09T12:54:07.838Z,2.53
2018-07-09T12:56:37.751Z,2.77
2018-07-09T12:59:07.227Z,2.90
2018-07-09T13:01:36.756Z,2.27
2018-07-09T13:04:06.075Z,2.33
2018-07-09T13:06:35.371Z,2.30
2018-07-09T13:09:05.573Z,2.37
2018-07-09T13:11:34.931Z,2.60
2018-07-09T13:14:04.337Z,2.40
2018-07-09T13:16:33.705Z,2.00
2018-07-09T13:19:03.477Z,2.60
2018-07-09T13:21:32.792Z,3.10
2018-07-09T13:24:02.396Z,2.20
2018-07-09T13:26:31.946Z,2.20
2018-07-09T13:29:01.365Z,3.00
2018-07-09T13:31:30.671Z,2.87
2018-07-09T13:34:00.056Z,2.10
2018-07-09T13:36:29.374Z,2.53
2018-07-09T13:38:58.959Z,2.53
2018-07-09T13:41:28.814Z,2.90
2018-07-09T13:43:58.098Z,2.80
2018-07-09T13:46:27.536Z,2.33
2018-07-09T13:48:56.638Z,2.43
2018-07-09T13:51:25.974Z,2.30
2018-07-09T13:53:55.330Z,2.90
2018-07-09T13:56:24.645Z,2.57
2018-07-09T13:58:54.296Z,3.10
2018-07-09T14:01:23.603Z,2.80
2018-07-09T14:03:52.994Z,3.10
2018-07-09T14:06:22.290Z,3.23
2018-07-09T14:08:51.672Z,3.47
2018-07-09T14:11:21.045Z,2.43
2018-07-09T14:13:50.403Z,2.73
2018-07-09T14:16:19.762Z,3.00
2018-07-09T14:18:49.287Z,2.93
2018-07-09T14:21:18.683Z,2.40
2018-07-09T14:23:47.964Z,2.77
2018-07-09T14:26:17.848Z,2.83
2018-07-09T14:28:47.151Z,2.90
2018-07-09T14:31:16.445Z,3.37
2018-07-09T14:33:45.794Z,2.37
2018-07-09T14:36:15.115Z,2.67
2018-07-09T14:38:44.456Z,2.57
2018-07-09T14:41:13.831Z,2.80
2018-07-09T14:43:43.200Z,3.27
2018-07-09T14:46:12.697Z,2.40
2018-07-09T14:48:42.477Z,2.67
2018-07-09T14:51:11.977Z,2.37
2018-07-09T14:53:41.341Z,2.37
2018-07-09T14:56:10.641Z,2.80
2018-07-09T14:58:39.941Z,2.20
2018-07-09T15:01:09.271Z,2.43
2018-07-09T15:03:38.625Z,2.60
2018-07-09T15:06:08.289Z,2.43
2018-07-09T15:08:37.621Z,2.67
2018-07-09T15:11:08.010Z,2.37
2018-07-09T15:13:37.352Z,2.53
2018-07-09T15:16:06.707Z,2.83
2018-07-09T15:18:36.074Z,2.43
2018-07-09T15:21:05.463Z,3.00
2018-07-09T15:23:34.739Z,2.33
2018-07-09T15:26:04.069Z,2.47
2018-07-09T15:28:33.370Z,2.50
2018-07-09T15:31:02.778Z,3.00
2018-07-09T15:33:32.918Z,1.90
2018-07-09T15:36:03.369Z,2.50
2018-07-09T15:38:32.582Z,2.53
2018-07-09T15:41:02.018Z,2.20
2018-07-09T15:44:04.854Z,3.30
2018-07-09T15:46:34.050Z,2.60
2018-07-09T15:49:03.363Z,2.57
2018-07-09T15:51:32.650Z,2.23
2018-07-09T15:54:02.711Z,2.60
2018-07-09T15:56:32.067Z,2.70
2018-07-09T15:59:01.627Z,2.77
2018-07-09T16:01:31.315Z,2.60
2018-07-09T16:04:00.688Z,2.27
2018-07-09T16:06:30.068Z,3.30
2018-07-09T16:08:59.627Z,2.67
2018-07-09T16:11:29.159Z,2.70
2018-07-09T16:13:58.502Z,1.93
2018-07-09T16:16:28.314Z,2.20
2018-07-09T16:18:57.639Z,2.33
2018-07-09T16:21:26.969Z,2.73
2018-07-09T16:23:56.346Z,2.40
2018-07-09T16:26:25.684Z,2.37
2018-07-09T16:28:55.123Z,2.40
2018-07-09T16:31:24.464Z,1.83
2018-07-09T16:33:53.776Z,2.93
2018-07-09T16:36:23.282Z,2.90
2018-07-09T16:38:52.971Z,2.40
2018-07-09T16:41:22.339Z,2.23
2018-07-09T16:43:51.626Z,3.00
2018-07-09T16:46:20.991Z,2.80
2018-07-09T16:48:50.376Z,3.00
2018-07-09T16:51:19.663Z,2.47
2018-07-09T16:53:49.053Z,4.50
2018-07-09T16:56:18.535Z,2.40
2018-07-09T16:58:47.959Z,2.60
2018-07-09T17:01:17.557Z,2.40
2018-07-09T17:03:46.956Z,3.10
2018-07-09T17:06:16.352Z,3.33
2018-07-09T17:08:45.713Z,2.50
2018-07-09T17:11:15.050Z,2.80
2018-07-09T17:13:44.479Z,2.37
2018-07-09T17:16:13.866Z,2.40
2018-07-09T17:18:43.191Z,2.53
2018-07-09T17:21:12.488Z,2.53
2018-07-09T17:23:42.614Z,2.63
2018-07-09T17:26:12.202Z,2.20
2018-07-09T17:28:41.798Z,3.20
2018-07-09T17:31:11.181Z,2.37
2018-07-09T17:33:40.524Z,2.57
2018-07-09T17:36:10.048Z,2.33
2018-07-09T17:38:39.536Z,3.03
2018-07-09T17:41:09.251Z,2.67
2018-07-09T17:43:38.594Z,2.63
2018-07-09T17:46:08.136Z,2.60
2018-07-09T17:48:37.520Z,2.57
2018-07-09T17:51:06.923Z,2.80
2018-07-09T17:53:36.275Z,2.87
2018-07-09T17:56:05.708Z,2.80
2018-07-09T17:58:35.160Z,2.53
2018-07-09T18:01:04.531Z,2.00
2018-07-09T18:03:33.950Z,2.80
2018-07-09T18:06:03.324Z,2.40
2018-07-09T18:08:32.783Z,2.70
2018-07-09T18:11:02.175Z,2.40
2018-07-09T18:13:31.581Z,3.13
2018-07-09T18:16:00.918Z,2.80
2018-07-09T18:18:30.346Z,3.53
2018-07-09T18:20:59.973Z,3.10
2018-07-09T18:23:29.332Z,2.23
2018-07-09T18:25:58.710Z,2.80
2018-07-09T18:28:28.111Z,3.07
2018-07-09T18:30:58.328Z,2.30
2018-07-09T18:33:27.728Z,2.90
2018-07-09T18:35:57.064Z,2.67
2018-07-09T18:38:26.421Z,1.57
2018-07-09T18:40:55.781Z,3.97
2018-07-09T18:43:25.115Z,3.07
2018-07-09T18:45:54.518Z,2.37
2018-07-09T18:48:23.825Z,3.00
2018-07-09T18:50:53.131Z,2.70
2018-07-09T18:53:22.625Z,2.70
2018-07-09T18:55:52.008Z,2.30
2018-07-09T18:58:22.385Z,2.77
2018-07-09T19:00:51.851Z,2.83
2018-07-09T19:03:21.206Z,2.37
2018-07-09T19:06:07.645Z,2.70
2018-07-09T19:08:37.959Z,2.83
2018-07-09T19:11:07.578Z,2.33
2018-07-09T19:13:37.577Z,2.37
2018-07-09T19:16:07.326Z,2.97
2018-07-09T19:18:54.159Z,2.17
2018-07-09T19:21:41.927Z,2.23
2018-07-09T19:24:11.336Z,2.40
2018-07-09T19:26:40.099Z,2.40
2018-07-09T19:29:07.874Z,2.53
2018-07-09T19:31:36.003Z,2.80
2018-07-09T19:34:03.888Z,3.40
2018-07-09T19:36:31.735Z,2.67
2018-07-09T19:38:59.497Z,2.70
2018-07-09T19:41:27.263Z,2.80
2018-07-09T19:43:55.078Z,2.90
2018-07-09T19:46:22.914Z,3.00
2018-07-09T19:48:50.684Z,2.80
2018-07-09T19:51:18.835Z,2.97
2018-07-09T19:53:46.880Z,2.73
2018-07-09T19:56:14.688Z,2.90
2018-07-09T19:58:42.570Z,2.30
2018-07-09T20:01:10.463Z,2.67
2018-07-09T20:03:38.292Z,3.13
2018-07-09T20:06:06.095Z,3.23
2018-07-09T20:08:39.149Z,2.57
2018-07-09T20:13:17.738Z,2.80
2018-07-09T20:15:51.850Z,2.97
2018-07-09T20:18:19.727Z,2.60
2018-07-09T20:20:47.547Z,2.70
2018-07-09T20:23:15.487Z,2.83
2018-07-09T20:25:43.332Z,3.30
2018-07-09T20:28:11.113Z,3.00
2018-07-09T20:30:38.988Z,2.73
2018-07-09T20:33:06.796Z,2.50
2018-07-09T20:35:34.597Z,2.80
2018-07-09T20:38:02.477Z,2.60
2018-07-09T20:40:30.365Z,2.57
2018-07-09T20:42:58.152Z,2.70
2018-07-09T20:45:25.941Z,3.23
2018-07-09T20:47:53.761Z,2.53
2018-07-09T20:50:21.522Z,3.20
2018-07-09T20:52:49.333Z,3.00
2018-07-09T20:55:17.188Z,2.40
2018-07-09T20:57:44.960Z,3.80
2018-07-09T21:00:12.784Z,3.10
2018-07-09T21:02:40.526Z,3.00
2018-07-09T21:05:08.609Z,2.50
2018-07-09T21:07:36.496Z,2.83
2018-07-09T21:10:04.296Z,3.00
2018-07-09T21:12:32.063Z,3.10
2018-07-09T21:15:00.043Z,3.40
2018-07-09T21:17:27.753Z,3.30
2018-07-09T21:19:55.552Z,2.73
2018-07-09T21:22:23.481Z,2.57
2018-07-09T21:24:51.257Z,3.00
2018-07-09T21:27:19.081Z,2.83
2018-07-09T21:29:46.918Z,2.97
2018-07-09T21:32:14.881Z,2.80
2018-07-09T21:34:42.740Z,2.87
2018-07-09T21:37:10.541Z,2.97
2018-07-09T21:39:38.338Z,3.00
2018-07-09T21:42:06.095Z,2.63
2018-07-09T21:44:33.946Z,2.73
2018-07-09T21:47:01.855Z,3.50
2018-07-09T21:49:30.008Z,2.63
2018-07-09T21:51:57.996Z,2.50
2018-07-09T21:54:26.098Z,3.57
2018-07-09T21:56:53.954Z,2.20
2018-07-09T21:59:21.855Z,2.80
2018-07-09T22:01:49.669Z,2.77
2018-07-09T22:04:17.593Z,3.00
2018-07-09T22:06:45.776Z,2.90
2018-07-09T22:09:13.649Z,2.93
2018-07-09T22:11:41.462Z,2.70
2018-07-09T22:14:09.334Z,2.30
2018-07-09T22:16:37.162Z,2.23
2018-07-09T22:19:05.171Z,2.90
2018-07-09T22:21:32.997Z,2.57
2018-07-09T22:24:01.063Z,2.40
2018-07-09T22:26:28.882Z,2.77
2018-07-09T22:28:57.058Z,2.40
2018-07-09T22:31:26.393Z,3.10
2018-07-09T22:33:55.857Z,2.43
2018-07-09T22:36:25.252Z,2.10
2018-07-09T22:38:54.717Z,2.40
2018-07-09T22:41:24.200Z,1.83
2018-07-09T22:44:10.619Z,2.67
2018-07-09T22:46:39.906Z,2.30
2018-07-09T22:49:09.301Z,2.83
2018-07-09T22:51:38.931Z,2.27
2018-07-09T22:54:08.531Z,2.83
2018-07-09T22:56:37.965Z,2.13
2018-07-09T22:59:07.459Z,2.17
2018-07-09T23:01:37.103Z,2.77
2018-07-09T23:04:06.433Z,2.53
2018-07-09T23:06:35.952Z,2.80
2018-07-09T23:10:23.384Z,2.10
2018-07-09T23:13:24.489Z,2.47
2018-07-09T23:17:11.039Z,2.10
2018-07-09T23:21:02.632Z,3.10
2018-07-09T23:23:30.647Z,2.23
2018-07-09T23:25:58.486Z,3.40
2018-07-09T23:28:26.699Z,2.80
2018-07-09T23:30:54.747Z,3.17
2018-07-09T23:33:22.543Z,3.70
2018-07-09T23:35:50.533Z,3.40
2018-07-09T23:38:18.471Z,3.20
2018-07-09T23:40:46.430Z,3.20
2018-07-09T23:43:14.374Z,2.90
2018-07-09T23:45:42.248Z,2.50
2018-07-09T23:48:10.171Z,3.37
2018-07-09T23:50:38.591Z,3.40
2018-07-09T23:53:06.402Z,2.67
2018-07-09T23:55:37.334Z,2.40
